Terminal Aerodrome Forecast
Issued by NWS Chicago, IL

Home | Current Version | Previous Version | Graphics & Text | Print | Product List | Glossary On
Versions: 1 2 3 4 5 6 7 8 9 10 11 12 13 14 15 16 17 18 19 20 21 22 23 24 25 26 27
000
FTUS43 KLOT 150407 AAB
TAFRFD
TAF AMD
KRFD 150407Z 1504/1524 16012G18KT 1SM -SN BR OVC015
      TEMPO 1504/1506 3/4SM -SN BR
     FM151000 16010KT 1 1/2SM -SN BR SCT008 OVC010
     FM151500 24007KT 4SM -SN OVC010
     FM151700 29012KT 6SM -SN OVC010=

USA.gov is the U.S. government's official web portal to all federal, state and local government web resources and services.